sensor_id;sensor_type;location;lat;lon;timestamp;P1;durP1;ratioP1;P2;durP2;ratioP2
16689;SDS011;8458;52.220;9.884;2024-02-04T00:01:09;2.70;;;2.50;;
16689;SDS011;8458;52.220;9.884;2024-02-04T00:03:35;2.40;;;2.20;;
16689;SDS011;8458;52.220;9.884;2024-02-04T00:06:02;3.23;;;2.70;;
16689;SDS011;8458;52.220;9.884;2024-02-04T00:08:28;3.27;;;2.90;;
16689;SDS011;8458;52.220;9.884;2024-02-04T00:10:56;3.93;;;2.33;;
16689;SDS011;8458;52.220;9.884;2024-02-04T00:13:23;2.43;;;2.23;;
16689;SDS011;8458;52.220;9.884;2024-02-04T00:15:49;2.73;;;2.40;;
16689;SDS011;8458;52.220;9.884;2024-02-04T00:18:19;2.37;;;2.00;;
16689;SDS011;8458;52.220;9.884;2024-02-04T00:20:45;2.27;;;1.97;;
16689;SDS011;8458;52.220;9.884;2024-02-04T00:23:12;2.23;;;2.03;;
16689;SDS011;8458;52.220;9.884;2024-02-04T00:25:38;2.60;;;2.00;;
16689;SDS011;8458;52.220;9.884;2024-02-04T00:28:07;2.73;;;2.30;;
16689;SDS011;8458;52.220;9.884;2024-02-04T00:30:36;2.50;;;2.30;;
16689;SDS011;8458;52.220;9.884;2024-02-04T00:33:03;4.00;;;2.53;;
16689;SDS011;8458;52.220;9.884;2024-02-04T00:35:30;2.60;;;2.40;;
16689;SDS011;8458;52.220;9.884;2024-02-04T00:37:56;3.03;;;2.40;;
16689;SDS011;8458;52.220;9.884;2024-02-04T00:40:23;2.47;;;2.27;;
16689;SDS011;8458;52.220;9.884;2024-02-04T00:42:51;3.20;;;2.77;;
16689;SDS011;8458;52.220;9.884;2024-02-04T00:45:19;3.30;;;2.53;;
16689;SDS011;8458;52.220;9.884;2024-02-04T00:47:46;2.90;;;2.70;;
16689;SDS011;8458;52.220;9.884;2024-02-04T00:50:12;4.10;;;3.27;;
16689;SDS011;8458;52.220;9.884;2024-02-04T00:52:38;3.00;;;2.70;;
16689;SDS011;8458;52.220;9.884;2024-02-04T00:55:05;4.13;;;2.67;;
16689;SDS011;8458;52.220;9.884;2024-02-04T00:57:32;2.97;;;2.70;;
16689;SDS011;8458;52.220;9.884;2024-02-04T00:59:59;4.27;;;2.27;;
16689;SDS011;8458;52.220;9.884;2024-02-04T01:02:26;4.30;;;2.57;;
16689;SDS011;8458;52.220;9.884;2024-02-04T01:04:53;4.00;;;2.50;;
16689;SDS011;8458;52.220;9.884;2024-02-04T01:07:19;2.70;;;2.20;;
16689;SDS011;8458;52.220;9.884;2024-02-04T01:09:46;2.97;;;2.27;;
16689;SDS011;8458;52.220;9.884;2024-02-04T01:12:12;3.40;;;2.53;;
16689;SDS011;8458;52.220;9.884;2024-02-04T01:14:39;4.27;;;2.43;;
16689;SDS011;8458;52.220;9.884;2024-02-04T01:17:05;3.43;;;2.33;;
16689;SDS011;8458;52.220;9.884;2024-02-04T01:19:33;3.23;;;2.63;;
16689;SDS011;8458;52.220;9.884;2024-02-04T01:22:00;5.20;;;2.90;;
16689;SDS011;8458;52.220;9.884;2024-02-04T01:24:26;3.50;;;3.20;;
16689;SDS011;8458;52.220;9.884;2024-02-04T01:26:54;4.03;;;3.63;;
16689;SDS011;8458;52.220;9.884;2024-02-04T01:29:20;4.30;;;4.00;;
16689;SDS011;8458;52.220;9.884;2024-02-04T01:31:46;4.60;;;4.20;;
16689;SDS011;8458;52.220;9.884;2024-02-04T01:34:13;4.80;;;4.40;;
16689;SDS011;8458;52.220;9.884;2024-02-04T01:36:41;4.97;;;4.47;;
16689;SDS011;8458;52.220;9.884;2024-02-04T01:39:07;4.20;;;3.80;;
16689;SDS011;8458;52.220;9.884;2024-02-04T01:41:35;4.10;;;3.70;;
16689;SDS011;8458;52.220;9.884;2024-02-04T01:44:03;4.40;;;4.10;;
16689;SDS011;8458;52.220;9.884;2024-02-04T01:46:29;3.90;;;3.43;;
16689;SDS011;8458;52.220;9.884;2024-02-04T01:48:56;4.43;;;4.03;;
16689;SDS011;8458;52.220;9.884;2024-02-04T01:51:22;3.70;;;3.40;;
16689;SDS011;8458;52.220;9.884;2024-02-04T01:53:51;3.50;;;3.20;;
16689;SDS011;8458;52.220;9.884;2024-02-04T01:56:18;3.73;;;3.10;;
16689;SDS011;8458;52.220;9.884;2024-02-04T01:58:46;4.50;;;3.60;;
16689;SDS011;8458;52.220;9.884;2024-02-04T02:01:13;3.97;;;3.07;;
16689;SDS011;8458;52.220;9.884;2024-02-04T02:03:40;3.50;;;3.20;;
16689;SDS011;8458;52.220;9.884;2024-02-04T02:06:06;3.73;;;3.43;;
16689;SDS011;8458;52.220;9.884;2024-02-04T02:08:33;4.40;;;3.63;;
16689;SDS011;8458;52.220;9.884;2024-02-04T02:11:03;4.47;;;4.07;;
16689;SDS011;8458;52.220;9.884;2024-02-04T02:13:34;4.07;;;3.77;;
16689;SDS011;8458;52.220;9.884;2024-02-04T02:16:06;5.03;;;4.53;;
16689;SDS011;8458;52.220;9.884;2024-02-04T02:18:39;5.00;;;4.70;;
16689;SDS011;8458;52.220;9.884;2024-02-04T02:21:13;5.63;;;5.13;;
16689;SDS011;8458;52.220;9.884;2024-02-04T02:23:53;5.73;;;5.33;;
16689;SDS011;8458;52.220;9.884;2024-02-04T02:26:36;6.20;;;5.70;;
16689;SDS011;8458;52.220;9.884;2024-02-04T02:29:04;6.67;;;5.90;;
16689;SDS011;8458;52.220;9.884;2024-02-04T02:31:33;5.90;;;5.40;;
16689;SDS011;8458;52.220;9.884;2024-02-04T02:33:59;6.27;;;5.77;;
16689;SDS011;8458;52.220;9.884;2024-02-04T02:36:26;6.33;;;5.83;;
16689;SDS011;8458;52.220;9.884;2024-02-04T02:38:59;6.17;;;5.77;;
16689;SDS011;8458;52.220;9.884;2024-02-04T02:41:36;7.20;;;6.70;;
16689;SDS011;8458;52.220;9.884;2024-02-04T02:44:04;7.20;;;6.60;;
16689;SDS011;8458;52.220;9.884;2024-02-04T02:46:33;6.03;;;5.63;;
16689;SDS011;8458;52.220;9.884;2024-02-04T02:49:00;6.00;;;5.50;;
16689;SDS011;8458;52.220;9.884;2024-02-04T02:51:26;6.57;;;6.00;;
16689;SDS011;8458;52.220;9.884;2024-02-04T02:53:53;6.13;;;5.67;;
16689;SDS011;8458;52.220;9.884;2024-02-04T02:56:19;5.33;;;4.93;;
16689;SDS011;8458;52.220;9.884;2024-02-04T02:58:47;5.00;;;4.67;;
16689;SDS011;8458;52.220;9.884;2024-02-04T03:01:14;4.87;;;4.47;;
16689;SDS011;8458;52.220;9.884;2024-02-04T03:03:40;4.87;;;4.47;;
16689;SDS011;8458;52.220;9.884;2024-02-04T03:06:07;5.03;;;4.63;;
16689;SDS011;8458;52.220;9.884;2024-02-04T03:08:33;5.33;;;4.90;;
16689;SDS011;8458;52.220;9.884;2024-02-04T03:11:00;6.27;;;5.10;;
16689;SDS011;8458;52.220;9.884;2024-02-04T03:13:26;4.87;;;4.47;;
16689;SDS011;8458;52.220;9.884;2024-02-04T03:15:54;5.33;;;4.30;;
16689;SDS011;8458;52.220;9.884;2024-02-04T03:18:20;4.87;;;4.37;;
16689;SDS011;8458;52.220;9.884;2024-02-04T03:20:47;4.90;;;4.60;;
16689;SDS011;8458;52.220;9.884;2024-02-04T03:23:13;5.53;;;4.90;;
16689;SDS011;8458;52.220;9.884;2024-02-04T03:25:40;4.87;;;4.53;;
16689;SDS011;8458;52.220;9.884;2024-02-04T03:28:07;5.93;;;5.40;;
16689;SDS011;8458;52.220;9.884;2024-02-04T03:30:33;6.33;;;5.63;;
16689;SDS011;8458;52.220;9.884;2024-02-04T03:33:01;5.43;;;5.03;;
16689;SDS011;8458;52.220;9.884;2024-02-04T03:35:27;5.03;;;4.63;;
16689;SDS011;8458;52.220;9.884;2024-02-04T03:37:54;5.10;;;4.70;;
16689;SDS011;8458;52.220;9.884;2024-02-04T03:40:20;7.20;;;6.53;;
16689;SDS011;8458;52.220;9.884;2024-02-04T03:42:49;6.10;;;5.50;;
16689;SDS011;8458;52.220;9.884;2024-02-04T03:45:16;6.40;;;5.90;;
16689;SDS011;8458;52.220;9.884;2024-02-04T03:47:42;6.87;;;6.37;;
16689;SDS011;8458;52.220;9.884;2024-02-04T03:50:10;7.10;;;6.50;;
16689;SDS011;8458;52.220;9.884;2024-02-04T03:52:36;6.60;;;6.07;;
16689;SDS011;8458;52.220;9.884;2024-02-04T03:55:03;6.40;;;6.00;;
16689;SDS011;8458;52.220;9.884;2024-02-04T03:57:30;6.13;;;5.73;;
16689;SDS011;8458;52.220;9.884;2024-02-04T03:59:58;6.23;;;5.83;;
16689;SDS011;8458;52.220;9.884;2024-02-04T04:02:24;6.93;;;6.43;;
16689;SDS011;8458;52.220;9.884;2024-02-04T04:04:51;6.53;;;6.07;;
16689;SDS011;8458;52.220;9.884;2024-02-04T04:07:19;5.73;;;5.23;;
16689;SDS011;8458;52.220;9.884;2024-02-04T04:09:45;6.37;;;5.87;;
16689;SDS011;8458;52.220;9.884;2024-02-04T04:12:11;6.43;;;5.93;;
16689;SDS011;8458;52.220;9.884;2024-02-04T04:14:38;6.13;;;5.63;;
16689;SDS011;8458;52.220;9.884;2024-02-04T04:17:04;5.67;;;5.27;;
16689;SDS011;8458;52.220;9.884;2024-02-04T04:19:31;5.60;;;5.10;;
16689;SDS011;8458;52.220;9.884;2024-02-04T04:22:00;5.80;;;5.30;;
16689;SDS011;8458;52.220;9.884;2024-02-04T04:24:29;5.67;;;5.23;;
16689;SDS011;8458;52.220;9.884;2024-02-04T04:26:55;6.27;;;5.73;;
16689;SDS011;8458;52.220;9.884;2024-02-04T04:29:21;6.20;;;5.70;;
16689;SDS011;8458;52.220;9.884;2024-02-04T04:31:48;6.03;;;5.43;;
16689;SDS011;8458;52.220;9.884;2024-02-04T04:34:14;5.40;;;5.00;;
16689;SDS011;8458;52.220;9.884;2024-02-04T04:36:43;5.80;;;5.40;;
16689;SDS011;8458;52.220;9.884;2024-02-04T04:39:09;5.33;;;4.93;;
16689;SDS011;8458;52.220;9.884;2024-02-04T04:41:38;5.70;;;5.27;;
16689;SDS011;8458;52.220;9.884;2024-02-04T04:44:04;5.33;;;4.93;;
16689;SDS011;8458;52.220;9.884;2024-02-04T04:46:31;4.57;;;4.27;;
16689;SDS011;8458;52.220;9.884;2024-02-04T04:48:57;4.80;;;4.50;;
16689;SDS011;8458;52.220;9.884;2024-02-04T04:51:23;4.83;;;4.53;;
16689;SDS011;8458;52.220;9.884;2024-02-04T04:53:50;4.40;;;4.20;;
16689;SDS011;8458;52.220;9.884;2024-02-04T04:56:16;4.70;;;4.40;;
16689;SDS011;8458;52.220;9.884;2024-02-04T04:58:44;4.73;;;4.33;;
16689;SDS011;8458;52.220;9.884;2024-02-04T05:01:10;4.17;;;3.87;;
16689;SDS011;8458;52.220;9.884;2024-02-04T05:03:37;4.50;;;4.10;;
16689;SDS011;8458;52.220;9.884;2024-02-04T05:06:04;4.30;;;4.00;;
16689;SDS011;8458;52.220;9.884;2024-02-04T05:08:30;3.57;;;3.37;;
16689;SDS011;8458;52.220;9.884;2024-02-04T05:10:57;3.70;;;3.40;;
16689;SDS011;8458;52.220;9.884;2024-02-04T05:13:23;3.40;;;3.20;;
16689;SDS011;8458;52.220;9.884;2024-02-04T05:15:51;3.30;;;3.00;;
16689;SDS011;8458;52.220;9.884;2024-02-04T05:18:17;3.40;;;3.10;;
16689;SDS011;8458;52.220;9.884;2024-02-04T05:20:44;3.40;;;3.10;;
16689;SDS011;8458;52.220;9.884;2024-02-04T05:23:10;3.20;;;2.90;;
16689;SDS011;8458;52.220;9.884;2024-02-04T05:25:38;2.90;;;2.70;;
16689;SDS011;8458;52.220;9.884;2024-02-04T05:28:06;2.77;;;2.30;;
16689;SDS011;8458;52.220;9.884;2024-02-04T05:30:32;2.53;;;2.33;;
16689;SDS011;8458;52.220;9.884;2024-02-04T05:33:00;2.50;;;2.30;;
16689;SDS011;8458;52.220;9.884;2024-02-04T05:35:26;2.27;;;2.03;;
16689;SDS011;8458;52.220;9.884;2024-02-04T05:37:53;1.90;;;1.80;;
16689;SDS011;8458;52.220;9.884;2024-02-04T05:40:19;2.03;;;1.93;;
16689;SDS011;8458;52.220;9.884;2024-02-04T05:42:46;1.80;;;1.57;;
16689;SDS011;8458;52.220;9.884;2024-02-04T05:45:12;2.07;;;1.90;;
16689;SDS011;8458;52.220;9.884;2024-02-04T05:47:39;2.50;;;2.00;;
16689;SDS011;8458;52.220;9.884;2024-02-04T05:50:07;2.57;;;1.87;;
16689;SDS011;8458;52.220;9.884;2024-02-04T05:52:34;3.17;;;1.90;;
16689;SDS011;8458;52.220;9.884;2024-02-04T05:55:01;2.80;;;1.70;;
16689;SDS011;8458;52.220;9.884;2024-02-04T05:57:27;2.00;;;1.40;;
16689;SDS011;8458;52.220;9.884;2024-02-04T05:59:53;1.77;;;1.50;;
16689;SDS011;8458;52.220;9.884;2024-02-04T06:02:20;1.80;;;1.60;;
16689;SDS011;8458;52.220;9.884;2024-02-04T06:04:47;1.73;;;1.63;;
16689;SDS011;8458;52.220;9.884;2024-02-04T06:07:15;2.33;;;1.57;;
16689;SDS011;8458;52.220;9.884;2024-02-04T06:09:42;1.50;;;1.40;;
16689;SDS011;8458;52.220;9.884;2024-02-04T06:12:08;2.03;;;1.50;;
16689;SDS011;8458;52.220;9.884;2024-02-04T06:14:35;1.93;;;1.17;;
16689;SDS011;8458;52.220;9.884;2024-02-04T06:17:04;2.13;;;1.27;;
16689;SDS011;8458;52.220;9.884;2024-02-04T06:19:33;1.93;;;1.10;;
16689;SDS011;8458;52.220;9.884;2024-02-04T06:21:59;1.13;;;0.80;;
16689;SDS011;8458;52.220;9.884;2024-02-04T06:24:27;1.33;;;0.90;;
16689;SDS011;8458;52.220;9.884;2024-02-04T06:26:54;1.13;;;0.80;;
16689;SDS011;8458;52.220;9.884;2024-02-04T06:29:20;1.63;;;0.87;;
16689;SDS011;8458;52.220;9.884;2024-02-04T06:31:46;0.90;;;0.80;;
16689;SDS011;8458;52.220;9.884;2024-02-04T06:34:13;1.73;;;0.90;;
16689;SDS011;8458;52.220;9.884;2024-02-04T06:36:41;1.10;;;0.80;;
16689;SDS011;8458;52.220;9.884;2024-02-04T06:39:08;0.80;;;0.80;;
16689;SDS011;8458;52.220;9.884;2024-02-04T06:41:36;1.53;;;1.03;;
16689;SDS011;8458;52.220;9.884;2024-02-04T06:44:02;1.60;;;1.10;;
16689;SDS011;8458;52.220;9.884;2024-02-04T06:46:29;2.10;;;1.00;;
16689;SDS011;8458;52.220;9.884;2024-02-04T06:48:57;1.63;;;1.00;;
16689;SDS011;8458;52.220;9.884;2024-02-04T06:51:23;1.80;;;0.87;;
16689;SDS011;8458;52.220;9.884;2024-02-04T06:53:49;1.73;;;0.93;;
16689;SDS011;8458;52.220;9.884;2024-02-04T06:56:16;1.43;;;1.20;;
16689;SDS011;8458;52.220;9.884;2024-02-04T06:58:44;1.37;;;0.90;;
16689;SDS011;8458;52.220;9.884;2024-02-04T07:01:10;1.20;;;0.80;;
16689;SDS011;8458;52.220;9.884;2024-02-04T07:03:38;1.70;;;0.97;;
16689;SDS011;8458;52.220;9.884;2024-02-04T07:06:04;1.07;;;0.80;;
16689;SDS011;8458;52.220;9.884;2024-02-04T07:08:31;2.00;;;0.90;;
16689;SDS011;8458;52.220;9.884;2024-02-04T07:10:58;1.43;;;1.00;;
16689;SDS011;8458;52.220;9.884;2024-02-04T07:13:24;1.80;;;0.80;;
16689;SDS011;8458;52.220;9.884;2024-02-04T07:15:52;1.37;;;0.80;;
16689;SDS011;8458;52.220;9.884;2024-02-04T07:18:19;1.03;;;0.80;;
16689;SDS011;8458;52.220;9.884;2024-02-04T07:20:46;1.17;;;0.80;;
16689;SDS011;8458;52.220;9.884;2024-02-04T07:23:13;1.07;;;0.70;;
16689;SDS011;8458;52.220;9.884;2024-02-04T07:25:39;1.47;;;0.80;;
16689;SDS011;8458;52.220;9.884;2024-02-04T07:28:06;1.20;;;0.80;;
16689;SDS011;8458;52.220;9.884;2024-02-04T07:30:33;1.40;;;0.60;;
16689;SDS011;8458;52.220;9.884;2024-02-04T07:33:00;1.47;;;0.63;;
16689;SDS011;8458;52.220;9.884;2024-02-04T07:35:27;1.60;;;0.87;;
16689;SDS011;8458;52.220;9.884;2024-02-04T07:37:53;1.63;;;0.70;;
16689;SDS011;8458;52.220;9.884;2024-02-04T07:40:20;1.53;;;0.70;;
16689;SDS011;8458;52.220;9.884;2024-02-04T07:42:46;1.00;;;0.70;;
16689;SDS011;8458;52.220;9.884;2024-02-04T07:45:13;1.83;;;0.60;;
16689;SDS011;8458;52.220;9.884;2024-02-04T07:47:39;1.33;;;0.60;;
16689;SDS011;8458;52.220;9.884;2024-02-04T07:50:08;1.60;;;0.80;;
16689;SDS011;8458;52.220;9.884;2024-02-04T07:52:35;1.30;;;0.80;;
16689;SDS011;8458;52.220;9.884;2024-02-04T07:55:01;1.27;;;0.90;;
16689;SDS011;8458;52.220;9.884;2024-02-04T07:57:28;2.20;;;1.07;;
16689;SDS011;8458;52.220;9.884;2024-02-04T07:59:54;1.53;;;0.60;;
16689;SDS011;8458;52.220;9.884;2024-02-04T08:02:21;2.60;;;0.90;;
16689;SDS011;8458;52.220;9.884;2024-02-04T08:04:47;2.00;;;1.00;;
16689;SDS011;8458;52.220;9.884;2024-02-04T08:07:15;2.30;;;1.07;;
16689;SDS011;8458;52.220;9.884;2024-02-04T08:09:42;2.03;;;1.00;;
16689;SDS011;8458;52.220;9.884;2024-02-04T08:12:08;1.43;;;0.70;;
16689;SDS011;8458;52.220;9.884;2024-02-04T08:14:35;1.97;;;1.03;;
16689;SDS011;8458;52.220;9.884;2024-02-04T08:17:02;1.00;;;0.70;;
16689;SDS011;8458;52.220;9.884;2024-02-04T08:19:28;1.77;;;0.50;;
16689;SDS011;8458;52.220;9.884;2024-02-04T08:21:55;2.27;;;0.70;;
16689;SDS011;8458;52.220;9.884;2024-02-04T08:24:23;1.77;;;0.63;;
16689;SDS011;8458;52.220;9.884;2024-02-04T08:26:49;1.47;;;0.70;;
16689;SDS011;8458;52.220;9.884;2024-02-04T08:29:16;2.60;;;1.07;;
16689;SDS011;8458;52.220;9.884;2024-02-04T08:31:42;0.90;;;0.53;;
16689;SDS011;8458;52.220;9.884;2024-02-04T08:34:08;2.03;;;0.73;;
16689;SDS011;8458;52.220;9.884;2024-02-04T08:36:35;2.10;;;0.60;;
16689;SDS011;8458;52.220;9.884;2024-02-04T08:39:02;1.90;;;0.80;;
16689;SDS011;8458;52.220;9.884;2024-02-04T08:41:30;1.03;;;0.60;;
16689;SDS011;8458;52.220;9.884;2024-02-04T08:43:57;1.10;;;0.57;;
16689;SDS011;8458;52.220;9.884;2024-02-04T08:46:23;2.10;;;0.70;;
16689;SDS011;8458;52.220;9.884;2024-02-04T08:48:49;1.90;;;0.90;;
16689;SDS011;8458;52.220;9.884;2024-02-04T08:51:16;2.03;;;0.70;;
16689;SDS011;8458;52.220;9.884;2024-02-04T08:53:44;2.97;;;0.77;;
16689;SDS011;8458;52.220;9.884;2024-02-04T08:56:10;2.00;;;0.70;;
16689;SDS011;8458;52.220;9.884;2024-02-04T08:58:38;3.40;;;0.80;;
16689;SDS011;8458;52.220;9.884;2024-02-04T09:01:04;1.67;;;0.80;;
16689;SDS011;8458;52.220;9.884;2024-02-04T09:03:31;4.00;;;0.73;;
16689;SDS011;8458;52.220;9.884;2024-02-04T09:05:58;3.03;;;1.00;;
16689;SDS011;8458;52.220;9.884;2024-02-04T09:08:25;2.40;;;0.80;;
16689;SDS011;8458;52.220;9.884;2024-02-04T09:10:51;2.33;;;0.80;;
16689;SDS011;8458;52.220;9.884;2024-02-04T09:13:18;1.90;;;1.00;;
16689;SDS011;8458;52.220;9.884;2024-02-04T09:15:46;2.53;;;0.90;;
16689;SDS011;8458;52.220;9.884;2024-02-04T09:18:12;2.60;;;1.00;;
16689;SDS011;8458;52.220;9.884;2024-02-04T09:20:39;1.90;;;0.80;;
16689;SDS011;8458;52.220;9.884;2024-02-04T09:23:05;2.80;;;0.90;;
16689;SDS011;8458;52.220;9.884;2024-02-04T09:25:32;1.73;;;0.90;;
16689;SDS011;8458;52.220;9.884;2024-02-04T09:27:58;2.67;;;1.07;;
16689;SDS011;8458;52.220;9.884;2024-02-04T09:30:25;2.63;;;1.00;;
16689;SDS011;8458;52.220;9.884;2024-02-04T09:32:52;1.50;;;0.80;;
16689;SDS011;8458;52.220;9.884;2024-02-04T09:35:19;3.07;;;0.90;;
16689;SDS011;8458;52.220;9.884;2024-02-04T09:37:45;3.17;;;1.20;;
16689;SDS011;8458;52.220;9.884;2024-02-04T09:40:12;2.73;;;0.83;;
16689;SDS011;8458;52.220;9.884;2024-02-04T09:42:39;2.37;;;1.00;;
16689;SDS011;8458;52.220;9.884;2024-02-04T09:45:06;3.47;;;1.00;;
16689;SDS011;8458;52.220;9.884;2024-02-04T09:47:34;1.93;;;0.80;;
16689;SDS011;8458;52.220;9.884;2024-02-04T09:50:02;1.97;;;0.80;;
16689;SDS011;8458;52.220;9.884;2024-02-04T09:52:29;3.83;;;1.10;;
16689;SDS011;8458;52.220;9.884;2024-02-04T09:54:59;2.47;;;1.00;;
16689;SDS011;8458;52.220;9.884;2024-02-04T09:57:27;1.87;;;0.80;;
16689;SDS011;8458;52.220;9.884;2024-02-04T09:59:55;3.27;;;1.17;;
16689;SDS011;8458;52.220;9.884;2024-02-04T10:02:21;3.57;;;1.27;;
16689;SDS011;8458;52.220;9.884;2024-02-04T10:04:49;2.90;;;1.07;;
16689;SDS011;8458;52.220;9.884;2024-02-04T10:07:17;3.00;;;0.97;;
16689;SDS011;8458;52.220;9.884;2024-02-04T10:09:44;1.77;;;0.97;;
16689;SDS011;8458;52.220;9.884;2024-02-04T10:12:11;2.70;;;0.90;;
16689;SDS011;8458;52.220;9.884;2024-02-04T10:14:38;2.93;;;0.90;;
16689;SDS011;8458;52.220;9.884;2024-02-04T10:17:04;3.00;;;0.70;;
16689;SDS011;8458;52.220;9.884;2024-02-04T10:19:31;2.73;;;0.70;;
16689;SDS011;8458;52.220;9.884;2024-02-04T10:21:58;2.50;;;0.73;;
16689;SDS011;8458;52.220;9.884;2024-02-04T10:24:26;5.97;;;1.37;;
16689;SDS011;8458;52.220;9.884;2024-02-04T10:26:53;2.63;;;0.93;;
16689;SDS011;8458;52.220;9.884;2024-02-04T10:29:20;2.73;;;0.90;;
16689;SDS011;8458;52.220;9.884;2024-02-04T10:31:46;2.57;;;0.87;;
16689;SDS011;8458;52.220;9.884;2024-02-04T10:34:13;1.80;;;0.70;;
16689;SDS011;8458;52.220;9.884;2024-02-04T10:36:40;3.87;;;1.10;;
16689;SDS011;8458;52.220;9.884;2024-02-04T10:39:06;2.07;;;0.93;;
16689;SDS011;8458;52.220;9.884;2024-02-04T10:41:34;2.23;;;0.90;;
16689;SDS011;8458;52.220;9.884;2024-02-04T10:44:09;4.17;;;1.10;;
16689;SDS011;8458;52.220;9.884;2024-02-04T10:46:41;3.60;;;1.00;;
16689;SDS011;8458;52.220;9.884;2024-02-04T10:49:08;2.30;;;0.80;;
16689;SDS011;8458;52.220;9.884;2024-02-04T10:51:40;2.70;;;1.07;;
16689;SDS011;8458;52.220;9.884;2024-02-04T10:54:07;1.70;;;0.87;;
16689;SDS011;8458;52.220;9.884;2024-02-04T10:56:36;2.63;;;0.83;;
16689;SDS011;8458;52.220;9.884;2024-02-04T10:59:03;3.47;;;1.13;;
16689;SDS011;8458;52.220;9.884;2024-02-04T11:01:30;2.37;;;1.00;;
16689;SDS011;8458;52.220;9.884;2024-02-04T11:03:58;3.10;;;1.00;;
16689;SDS011;8458;52.220;9.884;2024-02-04T11:06:25;3.33;;;1.30;;
16689;SDS011;8458;52.220;9.884;2024-02-04T11:08:53;2.60;;;1.03;;
16689;SDS011;8458;52.220;9.884;2024-02-04T11:11:22;3.37;;;1.50;;
16689;SDS011;8458;52.220;9.884;2024-02-04T11:13:53;2.80;;;1.07;;
16689;SDS011;8458;52.220;9.884;2024-02-04T11:16:31;2.50;;;1.00;;
16689;SDS011;8458;52.220;9.884;2024-02-04T11:19:14;4.00;;;1.00;;
16689;SDS011;8458;52.220;9.884;2024-02-04T11:22:01;3.47;;;1.10;;
16689;SDS011;8458;52.220;9.884;2024-02-04T11:24:44;1.90;;;1.07;;
16689;SDS011;8458;52.220;9.884;2024-02-04T11:27:21;3.07;;;1.20;;
16689;SDS011;8458;52.220;9.884;2024-02-04T11:29:50;2.97;;;1.20;;
16689;SDS011;8458;52.220;9.884;2024-02-04T11:32:17;2.10;;;1.13;;
16689;SDS011;8458;52.220;9.884;2024-02-04T11:34:44;2.83;;;1.23;;
16689;SDS011;8458;52.220;9.884;2024-02-04T11:37:15;2.37;;;0.90;;
16689;SDS011;8458;52.220;9.884;2024-02-04T11:39:47;2.70;;;1.10;;
16689;SDS011;8458;52.220;9.884;2024-02-04T11:42:14;3.20;;;1.10;;
16689;SDS011;8458;52.220;9.884;2024-02-04T11:44:41;3.33;;;1.07;;
16689;SDS011;8458;52.220;9.884;2024-02-04T11:47:08;2.23;;;1.00;;
16689;SDS011;8458;52.220;9.884;2024-02-04T11:49:35;2.73;;;1.17;;
16689;SDS011;8458;52.220;9.884;2024-02-04T11:52:01;3.43;;;1.40;;
16689;SDS011;8458;52.220;9.884;2024-02-04T11:54:29;1.50;;;1.00;;
16689;SDS011;8458;52.220;9.884;2024-02-04T11:56:56;2.60;;;1.20;;
16689;SDS011;8458;52.220;9.884;2024-02-04T11:59:23;2.63;;;1.10;;
16689;SDS011;8458;52.220;9.884;2024-02-04T12:01:53;2.17;;;0.80;;
16689;SDS011;8458;52.220;9.884;2024-02-04T12:04:21;1.60;;;0.90;;
16689;SDS011;8458;52.220;9.884;2024-02-04T12:06:48;2.77;;;0.90;;
16689;SDS011;8458;52.220;9.884;2024-02-04T12:09:16;2.50;;;0.70;;
16689;SDS011;8458;52.220;9.884;2024-02-04T12:11:44;2.93;;;0.63;;
16689;SDS011;8458;52.220;9.884;2024-02-04T12:14:10;1.20;;;0.70;;
16689;SDS011;8458;52.220;9.884;2024-02-04T12:16:38;2.90;;;0.83;;
16689;SDS011;8458;52.220;9.884;2024-02-04T12:19:05;2.53;;;0.67;;
16689;SDS011;8458;52.220;9.884;2024-02-04T12:21:32;2.17;;;0.80;;
16689;SDS011;8458;52.220;9.884;2024-02-04T12:24:01;1.73;;;0.70;;
16689;SDS011;8458;52.220;9.884;2024-02-04T12:26:28;1.13;;;0.60;;
16689;SDS011;8458;52.220;9.884;2024-02-04T12:28:57;2.40;;;0.60;;
16689;SDS011;8458;52.220;9.884;2024-02-04T12:31:24;1.87;;;0.70;;
16689;SDS011;8458;52.220;9.884;2024-02-04T12:33:54;2.07;;;0.70;;
16689;SDS011;8458;52.220;9.884;2024-02-04T12:36:23;2.77;;;0.70;;
16689;SDS011;8458;52.220;9.884;2024-02-04T12:38:51;2.70;;;0.50;;
16689;SDS011;8458;52.220;9.884;2024-02-04T12:41:19;1.87;;;0.70;;
16689;SDS011;8458;52.220;9.884;2024-02-04T12:43:48;1.03;;;0.40;;
16689;SDS011;8458;52.220;9.884;2024-02-04T12:46:15;1.80;;;0.80;;
16689;SDS011;8458;52.220;9.884;2024-02-04T12:48:42;2.20;;;0.70;;
16689;SDS011;8458;52.220;9.884;2024-02-04T12:51:09;1.30;;;0.50;;
16689;SDS011;8458;52.220;9.884;2024-02-04T12:53:36;0.70;;;0.60;;
16689;SDS011;8458;52.220;9.884;2024-02-04T12:56:04;1.03;;;0.63;;
16689;SDS011;8458;52.220;9.884;2024-02-04T12:58:31;1.33;;;0.97;;
16689;SDS011;8458;52.220;9.884;2024-02-04T13:01:00;1.20;;;0.67;;
16689;SDS011;8458;52.220;9.884;2024-02-04T13:03:27;1.70;;;0.70;;
16689;SDS011;8458;52.220;9.884;2024-02-04T13:05:57;1.93;;;0.53;;
16689;SDS011;8458;52.220;9.884;2024-02-04T13:08:24;1.63;;;0.60;;
16689;SDS011;8458;52.220;9.884;2024-02-04T13:10:53;1.47;;;0.57;;
16689;SDS011;8458;52.220;9.884;2024-02-04T13:13:22;1.20;;;0.57;;
16689;SDS011;8458;52.220;9.884;2024-02-04T13:15:52;1.17;;;0.60;;
16689;SDS011;8458;52.220;9.884;2024-02-04T13:18:19;1.37;;;0.77;;
16689;SDS011;8458;52.220;9.884;2024-02-04T13:20:45;1.10;;;0.50;;
16689;SDS011;8458;52.220;9.884;2024-02-04T13:23:12;1.40;;;0.60;;
16689;SDS011;8458;52.220;9.884;2024-02-04T13:25:38;1.57;;;0.50;;
16689;SDS011;8458;52.220;9.884;2024-02-04T13:28:05;2.60;;;0.90;;
16689;SDS011;8458;52.220;9.884;2024-02-04T13:30:33;2.10;;;1.00;;
16689;SDS011;8458;52.220;9.884;2024-02-04T13:32:59;2.03;;;1.60;;
16689;SDS011;8458;52.220;9.884;2024-02-04T13:35:27;1.53;;;0.77;;
16689;SDS011;8458;52.220;9.884;2024-02-04T13:37:53;1.17;;;0.60;;
16689;SDS011;8458;52.220;9.884;2024-02-04T13:40:21;2.00;;;1.00;;
16689;SDS011;8458;52.220;9.884;2024-02-04T13:42:48;1.43;;;0.97;;
16689;SDS011;8458;52.220;9.884;2024-02-04T13:45:15;0.83;;;0.70;;
16689;SDS011;8458;52.220;9.884;2024-02-04T13:47:43;1.70;;;0.60;;
16689;SDS011;8458;52.220;9.884;2024-02-04T13:50:10;1.00;;;0.70;;
16689;SDS011;8458;52.220;9.884;2024-02-04T13:52:37;2.43;;;1.10;;
16689;SDS011;8458;52.220;9.884;2024-02-04T13:55:05;2.10;;;0.90;;
16689;SDS011;8458;52.220;9.884;2024-02-04T13:57:32;0.80;;;0.70;;
16689;SDS011;8458;52.220;9.884;2024-02-04T13:59:59;1.77;;;0.67;;
16689;SDS011;8458;52.220;9.884;2024-02-04T14:02:25;1.40;;;0.77;;
16689;SDS011;8458;52.220;9.884;2024-02-04T14:04:56;1.30;;;0.70;;
16689;SDS011;8458;52.220;9.884;2024-02-04T14:07:22;3.00;;;0.90;;
16689;SDS011;8458;52.220;9.884;2024-02-04T14:09:49;1.20;;;0.80;;
16689;SDS011;8458;52.220;9.884;2024-02-04T14:12:15;1.97;;;0.90;;
16689;SDS011;8458;52.220;9.884;2024-02-04T14:14:42;1.43;;;0.93;;
16689;SDS011;8458;52.220;9.884;2024-02-04T14:17:09;0.90;;;0.73;;
16689;SDS011;8458;52.220;9.884;2024-02-04T14:19:35;1.50;;;0.90;;
16689;SDS011;8458;52.220;9.884;2024-02-04T14:22:03;1.90;;;0.80;;
16689;SDS011;8458;52.220;9.884;2024-02-04T14:24:30;2.60;;;1.03;;
16689;SDS011;8458;52.220;9.884;2024-02-04T14:26:56;1.93;;;0.90;;
16689;SDS011;8458;52.220;9.884;2024-02-04T14:29:23;2.50;;;1.10;;
16689;SDS011;8458;52.220;9.884;2024-02-04T14:31:50;2.17;;;1.10;;
16689;SDS011;8458;52.220;9.884;2024-02-04T14:34:16;1.30;;;0.90;;
16689;SDS011;8458;52.220;9.884;2024-02-04T14:36:43;2.03;;;0.90;;
16689;SDS011;8458;52.220;9.884;2024-02-04T14:39:10;1.33;;;1.00;;
16689;SDS011;8458;52.220;9.884;2024-02-04T14:41:37;1.53;;;1.20;;
16689;SDS011;8458;52.220;9.884;2024-02-04T14:44:04;1.57;;;1.40;;
16689;SDS011;8458;52.220;9.884;2024-02-04T14:46:30;2.53;;;1.50;;
16689;SDS011;8458;52.220;9.884;2024-02-04T14:48:56;2.57;;;1.30;;
16689;SDS011;8458;52.220;9.884;2024-02-04T14:51:23;2.27;;;1.60;;
16689;SDS011;8458;52.220;9.884;2024-02-04T14:53:49;1.50;;;1.10;;
16689;SDS011;8458;52.220;9.884;2024-02-04T14:56:17;2.40;;;1.20;;
16689;SDS011;8458;52.220;9.884;2024-02-04T14:58:44;1.80;;;0.97;;
16689;SDS011;8458;52.220;9.884;2024-02-04T15:01:10;2.50;;;1.00;;